Terminal Aerodrome Forecast
Issued by NWS Duluth, MN

Home | Current Version | Previous Version | Text Only | Print | Product List | Glossary On
Versions: 1 2 3 4 5 6 7 8 9 10 11 12 13 14 15 16 17 18 19 20 21 22 23
000
FTUS43 KDLH 130500
TAFINL
TAF
KINL 130533Z 1306/1406 14005KT P6SM OVC006
      TEMPO 1306/1308 5SM -SNRA
     FM131000 29007KT P6SM BKN010
     FM131400 31015G25KT P6SM OVC015
     FM131800 32015G25KT P6SM BKN030=

USA.gov is the U.S. government's official web portal to all federal, state and local government web resources and services.